<?xml version="1.0" encoding="UTF-8" standalone="no" ?>
<gpx xmlns="http://www.topografix.com/GPX/1/1" xmlns:xsi="http://www.w3.org/2001/XMLSchema-instance" xsi:schemaLocation="http://www.topografix.com/GPX/1/1 http://www.topografix.com/GPX/1/1/gpx.xsd" version="1.1" creator="VisuGPX - https://www.visugpx.com">
  <metadata>
    <name>Etape 2 Férel - Les Moûtiers</name>
    <desc><![CDATA[Randonnée vélo Rennes - Hendaye, empruntant la Vélodyssée à partir de Saint-Brevin-Les-Pins. ]]></desc>
  </metadata>
  <trk>
    <name><![CDATA[Sequence 32]]></name>
    <trkseg>
      <trkpt lat="47.10241" lon="-2.06018">
        <ele>35</ele>
        <time>2016-07-22T14:29:34Z</time>
      </trkpt>
      <trkpt lat="47.10241" lon="-2.06018">
        <ele>35</ele>
        <time>2016-07-22T14:29:39Z</time>
      </trkpt>
      <trkpt lat="47.10239" lon="-2.06015">
        <ele>36</ele>
        <time>2016-07-22T14:29:44Z</time>
      </trkpt>
      <trkpt lat="47.10239" lon="-2.06008">
        <ele>37</ele>
        <time>2016-07-22T14:29:49Z</time>
      </trkpt>
      <trkpt lat="47.1023" lon="-2.05978">
        <ele>39</ele>
        <time>2016-07-22T14:29:57Z</time>
      </trkpt>
      <trkpt lat="47.10226" lon="-2.05964">
        <ele>37</ele>
        <time>2016-07-22T14:30:00Z</time>
      </trkpt>
      <trkpt lat="47.10213" lon="-2.05957">
        <ele>37</ele>
        <time>2016-07-22T14:30:04Z</time>
      </trkpt>
      <trkpt lat="47.10187" lon="-2.05971">
        <ele>39</ele>
        <time>2016-07-22T14:30:10Z</time>
      </trkpt>
      <trkpt lat="47.10152" lon="-2.05996">
        <ele>38</ele>
        <time>2016-07-22T14:30:18Z</time>
      </trkpt>
      <trkpt lat="47.10148" lon="-2.05999">
        <ele>38</ele>
        <time>2016-07-22T14:30:19Z</time>
      </trkpt>
      <trkpt lat="47.10128" lon="-2.06015">
        <ele>37</ele>
        <time>2016-07-22T14:30:24Z</time>
      </trkpt>
      <trkpt lat="47.10106" lon="-2.06029">
        <ele>37</ele>
        <time>2016-07-22T14:30:29Z</time>
      </trkpt>
      <trkpt lat="47.10072" lon="-2.06055">
        <ele>38</ele>
        <time>2016-07-22T14:30:38Z</time>
      </trkpt>
      <trkpt lat="47.1007" lon="-2.06059">
        <ele>39</ele>
        <time>2016-07-22T14:30:39Z</time>
      </trkpt>
      <trkpt lat="47.10048" lon="-2.0607">
        <ele>39</ele>
        <time>2016-07-22T14:30:44Z</time>
      </trkpt>
      <trkpt lat="47.10008" lon="-2.06083">
        <ele>42</ele>
        <time>2016-07-22T14:30:52Z</time>
      </trkpt>
      <trkpt lat="47.09993" lon="-2.06082">
        <ele>41</ele>
        <time>2016-07-22T14:30:55Z</time>
      </trkpt>
      <trkpt lat="47.09957" lon="-2.06051">
        <ele>42</ele>
        <time>2016-07-22T14:31:02Z</time>
      </trkpt>
      <trkpt lat="47.09941" lon="-2.06036">
        <ele>41</ele>
        <time>2016-07-22T14:31:05Z</time>
      </trkpt>
      <trkpt lat="47.09916" lon="-2.06019">
        <ele>40</ele>
        <time>2016-07-22T14:31:09Z</time>
      </trkpt>
      <trkpt lat="47.09886" lon="-2.05969">
        <ele>38</ele>
        <time>2016-07-22T14:31:17Z</time>
      </trkpt>
      <trkpt lat="47.09874" lon="-2.05949">
        <ele>39</ele>
        <time>2016-07-22T14:31:20Z</time>
      </trkpt>
      <trkpt lat="47.09852" lon="-2.05918">
        <ele>39</ele>
        <time>2016-07-22T14:31:25Z</time>
      </trkpt>
      <trkpt lat="47.09837" lon="-2.0589">
        <ele>37</ele>
        <time>2016-07-22T14:31:29Z</time>
      </trkpt>
      <trkpt lat="47.09822" lon="-2.05859">
        <ele>33</ele>
        <time>2016-07-22T14:31:34Z</time>
      </trkpt>
      <trkpt lat="47.09813" lon="-2.05824">
        <ele>33</ele>
        <time>2016-07-22T14:31:39Z</time>
      </trkpt>
      <trkpt lat="47.09804" lon="-2.05783">
        <ele>31</ele>
        <time>2016-07-22T14:31:44Z</time>
      </trkpt>
      <trkpt lat="47.09794" lon="-2.05746">
        <ele>32</ele>
        <time>2016-07-22T14:31:49Z</time>
      </trkpt>
      <trkpt lat="47.09785" lon="-2.05707">
        <ele>33</ele>
        <time>2016-07-22T14:31:54Z</time>
      </trkpt>
      <trkpt lat="47.09773" lon="-2.05667">
        <ele>33</ele>
        <time>2016-07-22T14:31:59Z</time>
      </trkpt>
      <trkpt lat="47.09757" lon="-2.05627">
        <ele>32</ele>
        <time>2016-07-22T14:32:04Z</time>
      </trkpt>
      <trkpt lat="47.09731" lon="-2.05592">
        <ele>30</ele>
        <time>2016-07-22T14:32:09Z</time>
      </trkpt>
      <trkpt lat="47.09704" lon="-2.05563">
        <ele>30</ele>
        <time>2016-07-22T14:32:14Z</time>
      </trkpt>
      <trkpt lat="47.0968" lon="-2.05534">
        <ele>29</ele>
        <time>2016-07-22T14:32:19Z</time>
      </trkpt>
      <trkpt lat="47.09662" lon="-2.055">
        <ele>28</ele>
        <time>2016-07-22T14:32:24Z</time>
      </trkpt>
      <trkpt lat="47.09645" lon="-2.05461">
        <ele>28</ele>
        <time>2016-07-22T14:32:29Z</time>
      </trkpt>
      <trkpt lat="47.09626" lon="-2.05419">
        <ele>25</ele>
        <time>2016-07-22T14:32:34Z</time>
      </trkpt>
      <trkpt lat="47.09609" lon="-2.05376">
        <ele>21</ele>
        <time>2016-07-22T14:32:39Z</time>
      </trkpt>
      <trkpt lat="47.0959" lon="-2.05322">
        <ele>20</ele>
        <time>2016-07-22T14:32:46Z</time>
      </trkpt>
      <trkpt lat="47.09579" lon="-2.05299">
        <ele>20</ele>
        <time>2016-07-22T14:32:49Z</time>
      </trkpt>
      <trkpt lat="47.09568" lon="-2.05261">
        <ele>19</ele>
        <time>2016-07-22T14:32:54Z</time>
      </trkpt>
      <trkpt lat="47.09575" lon="-2.05209">
        <ele>15</ele>
        <time>2016-07-22T14:33:00Z</time>
      </trkpt>
      <trkpt lat="47.09574" lon="-2.05181">
        <ele>12</ele>
        <time>2016-07-22T14:33:04Z</time>
      </trkpt>
      <trkpt lat="47.09571" lon="-2.05146">
        <ele>12</ele>
        <time>2016-07-22T14:33:10Z</time>
      </trkpt>
      <trkpt lat="47.09579" lon="-2.05126">
        <ele>12</ele>
        <time>2016-07-22T14:33:14Z</time>
      </trkpt>
      <trkpt lat="47.09592" lon="-2.05107">
        <ele>11</ele>
        <time>2016-07-22T14:33:19Z</time>
      </trkpt>
      <trkpt lat="47.09609" lon="-2.05077">
        <ele>12</ele>
        <time>2016-07-22T14:33:27Z</time>
      </trkpt>
      <trkpt lat="47.09616" lon="-2.05072">
        <ele>12</ele>
        <time>2016-07-22T14:33:29Z</time>
      </trkpt>
      <trkpt lat="47.09625" lon="-2.05051">
        <ele>13</ele>
        <time>2016-07-22T14:33:34Z</time>
      </trkpt>
      <trkpt lat="47.09642" lon="-2.05024">
        <ele>16</ele>
        <time>2016-07-22T14:33:41Z</time>
      </trkpt>
      <trkpt lat="47.09661" lon="-2.04996">
        <ele>17</ele>
        <time>2016-07-22T14:33:48Z</time>
      </trkpt>
      <trkpt lat="47.09664" lon="-2.04992">
        <ele>17</ele>
        <time>2016-07-22T14:33:49Z</time>
      </trkpt>
      <trkpt lat="47.09673" lon="-2.04966">
        <ele>19</ele>
        <time>2016-07-22T14:33:55Z</time>
      </trkpt>
      <trkpt lat="47.09675" lon="-2.04947">
        <ele>18</ele>
        <time>2016-07-22T14:33:59Z</time>
      </trkpt>
      <trkpt lat="47.09667" lon="-2.0493">
        <ele>18</ele>
        <time>2016-07-22T14:34:04Z</time>
      </trkpt>
      <trkpt lat="47.09656" lon="-2.04914">
        <ele>22</ele>
        <time>2016-07-22T14:34:09Z</time>
      </trkpt>
      <trkpt lat="47.09647" lon="-2.04898">
        <ele>25</ele>
        <time>2016-07-22T14:34:14Z</time>
      </trkpt>
      <trkpt lat="47.09638" lon="-2.04882">
        <ele>27</ele>
        <time>2016-07-22T14:34:19Z</time>
      </trkpt>
      <trkpt lat="47.09629" lon="-2.04865">
        <ele>27</ele>
        <time>2016-07-22T14:34:24Z</time>
      </trkpt>
      <trkpt lat="47.09618" lon="-2.04846">
        <ele>28</ele>
        <time>2016-07-22T14:34:29Z</time>
      </trkpt>
      <trkpt lat="47.09608" lon="-2.04826">
        <ele>29</ele>
        <time>2016-07-22T14:34:34Z</time>
      </trkpt>
      <trkpt lat="47.09598" lon="-2.04803">
        <ele>29</ele>
        <time>2016-07-22T14:34:39Z</time>
      </trkpt>
      <trkpt lat="47.096" lon="-2.04777">
        <ele>28</ele>
        <time>2016-07-22T14:34:44Z</time>
      </trkpt>
      <trkpt lat="47.09614" lon="-2.04753">
        <ele>27</ele>
        <time>2016-07-22T14:34:49Z</time>
      </trkpt>
      <trkpt lat="47.09624" lon="-2.04725">
        <ele>27</ele>
        <time>2016-07-22T14:34:54Z</time>
      </trkpt>
      <trkpt lat="47.0963" lon="-2.04694">
        <ele>26</ele>
        <time>2016-07-22T14:34:59Z</time>
      </trkpt>
      <trkpt lat="47.0963" lon="-2.04667">
        <ele>26</ele>
        <time>2016-07-22T14:35:04Z</time>
      </trkpt>
      <trkpt lat="47.09629" lon="-2.04646">
        <ele>26</ele>
        <time>2016-07-22T14:35:09Z</time>
      </trkpt>
      <trkpt lat="47.09627" lon="-2.04622">
        <ele>26</ele>
        <time>2016-07-22T14:35:14Z</time>
      </trkpt>
      <trkpt lat="47.09627" lon="-2.04616">
        <ele>26</ele>
        <time>2016-07-22T14:35:19Z</time>
      </trkpt>
      <trkpt lat="47.09624" lon="-2.04597">
        <ele>27</ele>
        <time>2016-07-22T14:35:25Z</time>
      </trkpt>
      <trkpt lat="47.09624" lon="-2.04575">
        <ele>28</ele>
        <time>2016-07-22T14:35:29Z</time>
      </trkpt>
      <trkpt lat="47.09624" lon="-2.04546">
        <ele>30</ele>
        <time>2016-07-22T14:35:34Z</time>
      </trkpt>
      <trkpt lat="47.09622" lon="-2.04519">
        <ele>32</ele>
        <time>2016-07-22T14:35:39Z</time>
      </trkpt>
      <trkpt lat="47.09627" lon="-2.04472">
        <ele>26</ele>
        <time>2016-07-22T14:35:47Z</time>
      </trkpt>
      <trkpt lat="47.09633" lon="-2.04445">
        <ele>24</ele>
        <time>2016-07-22T14:35:52Z</time>
      </trkpt>
      <trkpt lat="47.09636" lon="-2.04433">
        <ele>25</ele>
        <time>2016-07-22T14:35:54Z</time>
      </trkpt>
      <trkpt lat="47.09643" lon="-2.04414">
        <ele>26</ele>
        <time>2016-07-22T14:35:59Z</time>
      </trkpt>
      <trkpt lat="47.09657" lon="-2.04423">
        <ele>26</ele>
        <time>2016-07-22T14:36:04Z</time>
      </trkpt>
      <trkpt lat="47.09672" lon="-2.0444">
        <ele>28</ele>
        <time>2016-07-22T14:36:09Z</time>
      </trkpt>
      <trkpt lat="47.09683" lon="-2.04456">
        <ele>29</ele>
        <time>2016-07-22T14:36:14Z</time>
      </trkpt>
      <trkpt lat="47.09686" lon="-2.04464">
        <ele>30</ele>
        <time>2016-07-22T14:36:19Z</time>
      </trkpt>
      <trkpt lat="47.09678" lon="-2.04453">
        <ele>30</ele>
        <time>2016-07-22T14:36:24Z</time>
      </trkpt>
      <trkpt lat="47.09666" lon="-2.04434">
        <ele>30</ele>
        <time>2016-07-22T14:36:29Z</time>
      </trkpt>
      <trkpt lat="47.0965" lon="-2.04417">
        <ele>30</ele>
        <time>2016-07-22T14:36:34Z</time>
      </trkpt>
      <trkpt lat="47.09639" lon="-2.04423">
        <ele>31</ele>
        <time>2016-07-22T14:36:39Z</time>
      </trkpt>
      <trkpt lat="47.09634" lon="-2.0445">
        <ele>31</ele>
        <time>2016-07-22T14:36:44Z</time>
      </trkpt>
      <trkpt lat="47.09629" lon="-2.04475">
        <ele>31</ele>
        <time>2016-07-22T14:36:49Z</time>
      </trkpt>
      <trkpt lat="47.09626" lon="-2.04496">
        <ele>30</ele>
        <time>2016-07-22T14:36:54Z</time>
      </trkpt>
      <trkpt lat="47.09627" lon="-2.04515">
        <ele>31</ele>
        <time>2016-07-22T14:36:59Z</time>
      </trkpt>
      <trkpt lat="47.09622" lon="-2.04517">
        <ele>32</ele>
        <time>2016-07-22T14:37:04Z</time>
      </trkpt>
      <trkpt lat="47.09617" lon="-2.04486">
        <ele>33</ele>
        <time>2016-07-22T14:37:13Z</time>
      </trkpt>
      <trkpt lat="47.09606" lon="-2.04487">
        <ele>34</ele>
        <time>2016-07-22T14:37:16Z</time>
      </trkpt>
      <trkpt lat="47.0959" lon="-2.04492">
        <ele>35</ele>
        <time>2016-07-22T14:37:20Z</time>
      </trkpt>
      <trkpt lat="47.09572" lon="-2.04481">
        <ele>37</ele>
        <time>2016-07-22T14:37:24Z</time>
      </trkpt>
      <trkpt lat="47.09552" lon="-2.04458">
        <ele>36</ele>
        <time>2016-07-22T14:37:29Z</time>
      </trkpt>
      <trkpt lat="47.09523" lon="-2.04425">
        <ele>35</ele>
        <time>2016-07-22T14:37:37Z</time>
      </trkpt>
      <trkpt lat="47.09514" lon="-2.04416">
        <ele>34</ele>
        <time>2016-07-22T14:37:39Z</time>
      </trkpt>
      <trkpt lat="47.09493" lon="-2.04395">
        <ele>31</ele>
        <time>2016-07-22T14:37:44Z</time>
      </trkpt>
      <trkpt lat="47.09469" lon="-2.04354">
        <ele>32</ele>
        <time>2016-07-22T14:37:52Z</time>
      </trkpt>
      <trkpt lat="47.09448" lon="-2.04333">
        <ele>31</ele>
        <time>2016-07-22T14:37:57Z</time>
      </trkpt>
      <trkpt lat="47.09434" lon="-2.0432">
        <ele>33</ele>
        <time>2016-07-22T14:38:01Z</time>
      </trkpt>
      <trkpt lat="47.09424" lon="-2.04303">
        <ele>31</ele>
        <time>2016-07-22T14:38:04Z</time>
      </trkpt>
      <trkpt lat="47.09405" lon="-2.04276">
        <ele>29</ele>
        <time>2016-07-22T14:38:10Z</time>
      </trkpt>
      <trkpt lat="47.09388" lon="-2.04277">
        <ele>27</ele>
        <time>2016-07-22T14:38:17Z</time>
      </trkpt>
      <trkpt lat="47.09384" lon="-2.04285">
        <ele>25</ele>
        <time>2016-07-22T14:38:19Z</time>
      </trkpt>
      <trkpt lat="47.09367" lon="-2.04312">
        <ele>23</ele>
        <time>2016-07-22T14:38:24Z</time>
      </trkpt>
      <trkpt lat="47.0935" lon="-2.04332">
        <ele>24</ele>
        <time>2016-07-22T14:38:29Z</time>
      </trkpt>
      <trkpt lat="47.09311" lon="-2.04345">
        <ele>25</ele>
        <time>2016-07-22T14:38:38Z</time>
      </trkpt>
      <trkpt lat="47.09298" lon="-2.04352">
        <ele>25</ele>
        <time>2016-07-22T14:38:41Z</time>
      </trkpt>
      <trkpt lat="47.09283" lon="-2.04361">
        <ele>25</ele>
        <time>2016-07-22T14:38:44Z</time>
      </trkpt>
      <trkpt lat="47.09261" lon="-2.04371">
        <ele>27</ele>
        <time>2016-07-22T14:38:49Z</time>
      </trkpt>
      <trkpt lat="47.09224" lon="-2.04367">
        <ele>32</ele>
        <time>2016-07-22T14:38:58Z</time>
      </trkpt>
      <trkpt lat="47.09222" lon="-2.04367">
        <ele>34</ele>
        <time>2016-07-22T14:38:59Z</time>
      </trkpt>
      <trkpt lat="47.09205" lon="-2.04341">
        <ele>39</ele>
        <time>2016-07-22T14:39:07Z</time>
      </trkpt>
      <trkpt lat="47.09183" lon="-2.04317">
        <ele>33</ele>
        <time>2016-07-22T14:39:13Z</time>
      </trkpt>
      <trkpt lat="47.09179" lon="-2.04311">
        <ele>34</ele>
        <time>2016-07-22T14:39:15Z</time>
      </trkpt>
      <trkpt lat="47.0917" lon="-2.043">
        <ele>34</ele>
        <time>2016-07-22T14:39:21Z</time>
      </trkpt>
      <trkpt lat="47.09169" lon="-2.04298">
        <ele>35</ele>
        <time>2016-07-22T14:39:25Z</time>
      </trkpt>
      <trkpt lat="47.09165" lon="-2.04298">
        <ele>35</ele>
        <time>2016-07-22T14:39:29Z</time>
      </trkpt>
      <trkpt lat="47.09156" lon="-2.0431">
        <ele>37</ele>
        <time>2016-07-22T14:39:34Z</time>
      </trkpt>
      <trkpt lat="47.09141" lon="-2.0433">
        <ele>37</ele>
        <time>2016-07-22T14:39:39Z</time>
      </trkpt>
      <trkpt lat="47.09126" lon="-2.04348">
        <ele>37</ele>
        <time>2016-07-22T14:39:44Z</time>
      </trkpt>
      <trkpt lat="47.09109" lon="-2.04353">
        <ele>39</ele>
        <time>2016-07-22T14:39:49Z</time>
      </trkpt>
      <trkpt lat="47.09091" lon="-2.0433">
        <ele>38</ele>
        <time>2016-07-22T14:39:54Z</time>
      </trkpt>
      <trkpt lat="47.09074" lon="-2.04304">
        <ele>36</ele>
        <time>2016-07-22T14:39:59Z</time>
      </trkpt>
      <trkpt lat="47.09057" lon="-2.04277">
        <ele>36</ele>
        <time>2016-07-22T14:40:04Z</time>
      </trkpt>
      <trkpt lat="47.09039" lon="-2.0425">
        <ele>36</ele>
        <time>2016-07-22T14:40:09Z</time>
      </trkpt>
      <trkpt lat="47.09026" lon="-2.04222">
        <ele>40</ele>
        <time>2016-07-22T14:40:14Z</time>
      </trkpt>
      <trkpt lat="47.09005" lon="-2.04167">
        <ele>36</ele>
        <time>2016-07-22T14:40:23Z</time>
      </trkpt>
      <trkpt lat="47.08988" lon="-2.04144">
        <ele>35</ele>
        <time>2016-07-22T14:40:27Z</time>
      </trkpt>
      <trkpt lat="47.0898" lon="-2.0413">
        <ele>35</ele>
        <time>2016-07-22T14:40:29Z</time>
      </trkpt>
      <trkpt lat="47.08958" lon="-2.04092">
        <ele>34</ele>
        <time>2016-07-22T14:40:35Z</time>
      </trkpt>
      <trkpt lat="47.08949" lon="-2.04065">
        <ele>33</ele>
        <time>2016-07-22T14:40:39Z</time>
      </trkpt>
      <trkpt lat="47.0894" lon="-2.04037">
        <ele>32</ele>
        <time>2016-07-22T14:40:44Z</time>
      </trkpt>
      <trkpt lat="47.0895" lon="-2.04015">
        <ele>32</ele>
        <time>2016-07-22T14:40:49Z</time>
      </trkpt>
      <trkpt lat="47.0897" lon="-2.03994">
        <ele>31</ele>
        <time>2016-07-22T14:40:54Z</time>
      </trkpt>
      <trkpt lat="47.08989" lon="-2.0397">
        <ele>29</ele>
        <time>2016-07-22T14:40:59Z</time>
      </trkpt>
      <trkpt lat="47.09011" lon="-2.0393">
        <ele>32</ele>
        <time>2016-07-22T14:41:06Z</time>
      </trkpt>
      <trkpt lat="47.09014" lon="-2.03911">
        <ele>30</ele>
        <time>2016-07-22T14:41:09Z</time>
      </trkpt>
      <trkpt lat="47.09002" lon="-2.03863">
        <ele>33</ele>
        <time>2016-07-22T14:41:16Z</time>
      </trkpt>
      <trkpt lat="47.08998" lon="-2.03844">
        <ele>34</ele>
        <time>2016-07-22T14:41:19Z</time>
      </trkpt>
      <trkpt lat="47.0898" lon="-2.03791">
        <ele>33</ele>
        <time>2016-07-22T14:41:27Z</time>
      </trkpt>
      <trkpt lat="47.08968" lon="-2.03751">
        <ele>34</ele>
        <time>2016-07-22T14:41:33Z</time>
      </trkpt>
      <trkpt lat="47.08965" lon="-2.03744">
        <ele>34</ele>
        <time>2016-07-22T14:41:34Z</time>
      </trkpt>
      <trkpt lat="47.08949" lon="-2.03704">
        <ele>37</ele>
        <time>2016-07-22T14:41:40Z</time>
      </trkpt>
      <trkpt lat="47.08918" lon="-2.03676">
        <ele>37</ele>
        <time>2016-07-22T14:41:47Z</time>
      </trkpt>
      <trkpt lat="47.08909" lon="-2.03667">
        <ele>37</ele>
        <time>2016-07-22T14:41:49Z</time>
      </trkpt>
      <trkpt lat="47.08891" lon="-2.03641">
        <ele>38</ele>
        <time>2016-07-22T14:41:54Z</time>
      </trkpt>
      <trkpt lat="47.08872" lon="-2.03613">
        <ele>37</ele>
        <time>2016-07-22T14:41:59Z</time>
      </trkpt>
      <trkpt lat="47.08853" lon="-2.03589">
        <ele>35</ele>
        <time>2016-07-22T14:42:04Z</time>
      </trkpt>
      <trkpt lat="47.08834" lon="-2.03581">
        <ele>35</ele>
        <time>2016-07-22T14:42:10Z</time>
      </trkpt>
      <trkpt lat="47.08828" lon="-2.03597">
        <ele>35</ele>
        <time>2016-07-22T14:42:14Z</time>
      </trkpt>
      <trkpt lat="47.0882" lon="-2.03621">
        <ele>37</ele>
        <time>2016-07-22T14:42:19Z</time>
      </trkpt>
      <trkpt lat="47.08804" lon="-2.03652">
        <ele>37</ele>
        <time>2016-07-22T14:42:25Z</time>
      </trkpt>
      <trkpt lat="47.08794" lon="-2.03673">
        <ele>36</ele>
        <time>2016-07-22T14:42:29Z</time>
      </trkpt>
      <trkpt lat="47.0878" lon="-2.03703">
        <ele>34</ele>
        <time>2016-07-22T14:42:35Z</time>
      </trkpt>
      <trkpt lat="47.08769" lon="-2.03723">
        <ele>35</ele>
        <time>2016-07-22T14:42:39Z</time>
      </trkpt>
      <trkpt lat="47.08755" lon="-2.03745">
        <ele>33</ele>
        <time>2016-07-22T14:42:44Z</time>
      </trkpt>
      <trkpt lat="47.08735" lon="-2.03782">
        <ele>34</ele>
        <time>2016-07-22T14:42:51Z</time>
      </trkpt>
      <trkpt lat="47.08722" lon="-2.03807">
        <ele>34</ele>
        <time>2016-07-22T14:42:55Z</time>
      </trkpt>
      <trkpt lat="47.08708" lon="-2.03827">
        <ele>34</ele>
        <time>2016-07-22T14:42:59Z</time>
      </trkpt>
      <trkpt lat="47.08689" lon="-2.03852">
        <ele>36</ele>
        <time>2016-07-22T14:43:04Z</time>
      </trkpt>
      <trkpt lat="47.08636" lon="-2.03884">
        <ele>31</ele>
        <time>2016-07-22T14:43:13Z</time>
      </trkpt>
      <trkpt lat="47.08629" lon="-2.0389">
        <ele>30</ele>
        <time>2016-07-22T14:43:14Z</time>
      </trkpt>
      <trkpt lat="47.08602" lon="-2.03906">
        <ele>28</ele>
        <time>2016-07-22T14:43:20Z</time>
      </trkpt>
      <trkpt lat="47.08568" lon="-2.03941">
        <ele>25</ele>
        <time>2016-07-22T14:43:28Z</time>
      </trkpt>
      <trkpt lat="47.08561" lon="-2.03944">
        <ele>25</ele>
        <time>2016-07-22T14:43:29Z</time>
      </trkpt>
      <trkpt lat="47.08534" lon="-2.03967">
        <ele>23</ele>
        <time>2016-07-22T14:43:34Z</time>
      </trkpt>
      <trkpt lat="47.08509" lon="-2.03984">
        <ele>25</ele>
        <time>2016-07-22T14:43:41Z</time>
      </trkpt>
      <trkpt lat="47.08498" lon="-2.03969">
        <ele>22</ele>
        <time>2016-07-22T14:43:44Z</time>
      </trkpt>
      <trkpt lat="47.08482" lon="-2.03928">
        <ele>22</ele>
        <time>2016-07-22T14:43:50Z</time>
      </trkpt>
      <trkpt lat="47.08472" lon="-2.03905">
        <ele>22</ele>
        <time>2016-07-22T14:43:54Z</time>
      </trkpt>
      <trkpt lat="47.08464" lon="-2.03882">
        <ele>26</ele>
        <time>2016-07-22T14:43:59Z</time>
      </trkpt>
      <trkpt lat="47.08453" lon="-2.0385">
        <ele>26</ele>
        <time>2016-07-22T14:44:04Z</time>
      </trkpt>
      <trkpt lat="47.08432" lon="-2.038">
        <ele>31</ele>
        <time>2016-07-22T14:44:12Z</time>
      </trkpt>
      <trkpt lat="47.08426" lon="-2.03788">
        <ele>32</ele>
        <time>2016-07-22T14:44:14Z</time>
      </trkpt>
      <trkpt lat="47.08409" lon="-2.03744">
        <ele>25</ele>
        <time>2016-07-22T14:44:20Z</time>
      </trkpt>
      <trkpt lat="47.0839" lon="-2.03705">
        <ele>29</ele>
        <time>2016-07-22T14:44:28Z</time>
      </trkpt>
      <trkpt lat="47.08388" lon="-2.03699">
        <ele>30</ele>
        <time>2016-07-22T14:44:29Z</time>
      </trkpt>
      <trkpt lat="47.08377" lon="-2.03644">
        <ele>31</ele>
        <time>2016-07-22T14:44:37Z</time>
      </trkpt>
      <trkpt lat="47.08374" lon="-2.03628">
        <ele>29</ele>
        <time>2016-07-22T14:44:39Z</time>
      </trkpt>
      <trkpt lat="47.08367" lon="-2.03586">
        <ele>29</ele>
        <time>2016-07-22T14:44:45Z</time>
      </trkpt>
      <trkpt lat="47.08356" lon="-2.03532">
        <ele>30</ele>
        <time>2016-07-22T14:44:53Z</time>
      </trkpt>
      <trkpt lat="47.08354" lon="-2.03526">
        <ele>31</ele>
        <time>2016-07-22T14:44:54Z</time>
      </trkpt>
      <trkpt lat="47.08346" lon="-2.03488">
        <ele>29</ele>
        <time>2016-07-22T14:44:59Z</time>
      </trkpt>
      <trkpt lat="47.08336" lon="-2.03425">
        <ele>25</ele>
        <time>2016-07-22T14:45:07Z</time>
      </trkpt>
      <trkpt lat="47.08332" lon="-2.0341">
        <ele>27</ele>
        <time>2016-07-22T14:45:09Z</time>
      </trkpt>
      <trkpt lat="47.08321" lon="-2.0334">
        <ele>31</ele>
        <time>2016-07-22T14:45:18Z</time>
      </trkpt>
      <trkpt lat="47.0832" lon="-2.03332">
        <ele>31</ele>
        <time>2016-07-22T14:45:19Z</time>
      </trkpt>
      <trkpt lat="47.08321" lon="-2.03302">
        <ele>30</ele>
        <time>2016-07-22T14:45:24Z</time>
      </trkpt>
      <trkpt lat="47.08329" lon="-2.03276">
        <ele>31</ele>
        <time>2016-07-22T14:45:29Z</time>
      </trkpt>
      <trkpt lat="47.08339" lon="-2.03247">
        <ele>29</ele>
        <time>2016-07-22T14:45:34Z</time>
      </trkpt>
      <trkpt lat="47.08353" lon="-2.03213">
        <ele>28</ele>
        <time>2016-07-22T14:45:40Z</time>
      </trkpt>
      <trkpt lat="47.08354" lon="-2.03194">
        <ele>28</ele>
        <time>2016-07-22T14:45:44Z</time>
      </trkpt>
      <trkpt lat="47.08347" lon="-2.03174">
        <ele>29</ele>
        <time>2016-07-22T14:45:49Z</time>
      </trkpt>
      <trkpt lat="47.08342" lon="-2.03166">
        <ele>29</ele>
        <time>2016-07-22T14:45:54Z</time>
      </trkpt>
      <trkpt lat="47.08343" lon="-2.03168">
        <ele>29</ele>
        <time>2016-07-22T14:46:03Z</time>
      </trkpt>
      <trkpt lat="47.08343" lon="-2.03168">
        <ele>29</ele>
        <time>2016-07-22T14:46:07Z</time>
      </trkpt>
      <trkpt lat="47.08341" lon="-2.03161">
        <ele>28</ele>
        <time>2016-07-22T14:46:09Z</time>
      </trkpt>
      <trkpt lat="47.0835" lon="-2.03142">
        <ele>28</ele>
        <time>2016-07-22T14:46:14Z</time>
      </trkpt>
      <trkpt lat="47.08368" lon="-2.03124">
        <ele>28</ele>
        <time>2016-07-22T14:46:19Z</time>
      </trkpt>
      <trkpt lat="47.08386" lon="-2.03105">
        <ele>28</ele>
        <time>2016-07-22T14:46:24Z</time>
      </trkpt>
      <trkpt lat="47.08407" lon="-2.03049">
        <ele>29</ele>
        <time>2016-07-22T14:46:33Z</time>
      </trkpt>
      <trkpt lat="47.08411" lon="-2.03034">
        <ele>30</ele>
        <time>2016-07-22T14:46:35Z</time>
      </trkpt>
      <trkpt lat="47.08414" lon="-2.03006">
        <ele>33</ele>
        <time>2016-07-22T14:46:39Z</time>
      </trkpt>
      <trkpt lat="47.0841" lon="-2.02945">
        <ele>33</ele>
        <time>2016-07-22T14:46:47Z</time>
      </trkpt>
      <trkpt lat="47.08408" lon="-2.02929">
        <ele>32</ele>
        <time>2016-07-22T14:46:49Z</time>
      </trkpt>
      <trkpt lat="47.08402" lon="-2.02883">
        <ele>32</ele>
        <time>2016-07-22T14:46:54Z</time>
      </trkpt>
      <trkpt lat="47.08394" lon="-2.02837">
        <ele>31</ele>
        <time>2016-07-22T14:46:59Z</time>
      </trkpt>
      <trkpt lat="47.08387" lon="-2.02783">
        <ele>29</ele>
        <time>2016-07-22T14:47:04Z</time>
      </trkpt>
      <trkpt lat="47.08372" lon="-2.0271">
        <ele>29</ele>
        <time>2016-07-22T14:47:12Z</time>
      </trkpt>
      <trkpt lat="47.08364" lon="-2.02669">
        <ele>31</ele>
        <time>2016-07-22T14:47:17Z</time>
      </trkpt>
      <trkpt lat="47.08361" lon="-2.02654">
        <ele>32</ele>
        <time>2016-07-22T14:47:19Z</time>
      </trkpt>
      <trkpt lat="47.08353" lon="-2.02622">
        <ele>34</ele>
        <time>2016-07-22T14:47:24Z</time>
      </trkpt>
      <trkpt lat="47.0834" lon="-2.02583">
        <ele>32</ele>
        <time>2016-07-22T14:47:30Z</time>
      </trkpt>
      <trkpt lat="47.08321" lon="-2.02532">
        <ele>31</ele>
        <time>2016-07-22T14:47:37Z</time>
      </trkpt>
      <trkpt lat="47.08314" lon="-2.02519">
        <ele>31</ele>
        <time>2016-07-22T14:47:39Z</time>
      </trkpt>
      <trkpt lat="47.08284" lon="-2.02451">
        <ele>28</ele>
        <time>2016-07-22T14:47:48Z</time>
      </trkpt>
      <trkpt lat="47.08267" lon="-2.02415">
        <ele>27</ele>
        <time>2016-07-22T14:47:53Z</time>
      </trkpt>
      <trkpt lat="47.08263" lon="-2.02407">
        <ele>25</ele>
        <time>2016-07-22T14:47:54Z</time>
      </trkpt>
      <trkpt lat="47.08245" lon="-2.0235">
        <ele>26</ele>
        <time>2016-07-22T14:48:01Z</time>
      </trkpt>
      <trkpt lat="47.08236" lon="-2.02321">
        <ele>25</ele>
        <time>2016-07-22T14:48:05Z</time>
      </trkpt>
      <trkpt lat="47.08226" lon="-2.0229">
        <ele>24</ele>
        <time>2016-07-22T14:48:09Z</time>
      </trkpt>
      <trkpt lat="47.08202" lon="-2.02239">
        <ele>24</ele>
        <time>2016-07-22T14:48:15Z</time>
      </trkpt>
      <trkpt lat="47.08181" lon="-2.0219">
        <ele>21</ele>
        <time>2016-07-22T14:48:20Z</time>
      </trkpt>
      <trkpt lat="47.08166" lon="-2.02162">
        <ele>25</ele>
        <time>2016-07-22T14:48:24Z</time>
      </trkpt>
      <trkpt lat="47.08147" lon="-2.02127">
        <ele>27</ele>
        <time>2016-07-22T14:48:29Z</time>
      </trkpt>
      <trkpt lat="47.08119" lon="-2.02069">
        <ele>30</ele>
        <time>2016-07-22T14:48:37Z</time>
      </trkpt>
      <trkpt lat="47.08104" lon="-2.02038">
        <ele>32</ele>
        <time>2016-07-22T14:48:41Z</time>
      </trkpt>
      <trkpt lat="47.08095" lon="-2.02017">
        <ele>32</ele>
        <time>2016-07-22T14:48:44Z</time>
      </trkpt>
      <trkpt lat="47.08088" lon="-2.01998">
        <ele>31</ele>
        <time>2016-07-22T14:48:49Z</time>
      </trkpt>
      <trkpt lat="47.08088" lon="-2.02001">
        <ele>31</ele>
        <time>2016-07-22T14:48:54Z</time>
      </trkpt>
      <trkpt lat="47.08087" lon="-2.02001">
        <ele>31</ele>
        <time>2016-07-22T14:49:00Z</time>
      </trkpt>
    </trkseg>
  </trk>
</gpx>